createdAt,value
2023-01-29T00:02:18.848Z,48.87
2023-01-29T00:04:46.340Z,48.78
2023-01-29T00:07:13.469Z,48.44
2023-01-29T00:09:40.601Z,48.46
2023-01-29T00:12:10.259Z,48.71
2023-01-29T00:14:37.282Z,48.77
2023-01-29T00:17:04.401Z,48.61
2023-01-29T00:19:31.529Z,48.78
2023-01-29T00:21:58.625Z,48.73
2023-01-29T00:24:25.865Z,48.44
2023-01-29T00:26:53.035Z,48.47
2023-01-29T00:29:21.955Z,49.15
2023-01-29T00:31:49.406Z,49.13
2023-01-29T00:34:16.704Z,48.98
2023-01-29T00:36:45.565Z,48.88
2023-01-29T00:39:13.185Z,49.03
2023-01-29T00:41:58.707Z,49.25
2023-01-29T00:44:44.168Z,49.00
2023-01-29T00:47:29.755Z,48.74
2023-01-29T00:49:58.112Z,48.63
2023-01-29T00:52:25.685Z,48.02
2023-01-29T00:54:55.427Z,48.03
2023-01-29T00:57:24.156Z,48.23
2023-01-29T00:59:51.288Z,47.73
2023-01-29T01:02:36.713Z,47.82
2023-01-29T01:05:10.310Z,47.65
2023-01-29T01:07:39.849Z,47.49
2023-01-29T01:10:24.227Z,47.60
2023-01-29T01:13:03.380Z,47.50
2023-01-29T01:15:35.508Z,47.35
2023-01-29T01:18:04.533Z,47.82
2023-01-29T01:20:34.765Z,47.55
2023-01-29T01:23:03.513Z,47.64
2023-01-29T01:25:30.730Z,47.81
2023-01-29T01:30:27.247Z,47.76
2023-01-29T01:32:54.497Z,47.81
2023-01-29T01:35:21.831Z,47.86
2023-01-29T01:37:49.368Z,48.38
2023-01-29T01:40:22.547Z,48.06
2023-01-29T01:42:55.482Z,48.15
2023-01-29T01:45:36.725Z,47.88
2023-01-29T01:48:13.031Z,47.82
2023-01-29T01:51:03.315Z,47.73
2023-01-29T01:53:39.789Z,48.00
2023-01-29T01:56:24.593Z,47.96
2023-01-29T01:58:57.038Z,48.20
2023-01-29T02:01:28.948Z,47.97
2023-01-29T02:04:26.968Z,48.30
2023-01-29T02:07:13.383Z,47.84
2023-01-29T02:09:55.117Z,47.77
2023-01-29T02:12:23.153Z,48.42
2023-01-29T02:14:52.137Z,48.60
2023-01-29T02:17:20.601Z,48.98
2023-01-29T02:20:10.091Z,49.22
2023-01-29T02:23:02.716Z,49.50
2023-01-29T02:26:04.345Z,49.86
2023-01-29T02:28:38.659Z,50.30
2023-01-29T02:31:41.552Z,50.46
2023-01-29T02:34:14.905Z,50.43
2023-01-29T02:36:49.797Z,50.80
2023-01-29T02:39:43.642Z,50.78
2023-01-29T02:42:28.052Z,50.97
2023-01-29T02:45:32.283Z,50.94
2023-01-29T02:48:02.074Z,50.64
2023-01-29T02:50:50.950Z,50.56
2023-01-29T02:53:36.437Z,50.55
2023-01-29T02:56:13.539Z,50.70
2023-01-29T02:58:46.491Z,50.76
2023-01-29T03:01:23.827Z,50.57
2023-01-29T03:03:56.667Z,50.56
2023-01-29T03:06:33.620Z,50.79
2023-01-29T03:09:27.122Z,50.64
2023-01-29T03:12:19.845Z,50.67
2023-01-29T03:15:10.029Z,50.91
2023-01-29T03:18:07.824Z,50.92
2023-01-29T03:20:48.324Z,50.63
2023-01-29T03:23:44.150Z,50.84
2023-01-29T03:26:33.584Z,51.08
2023-01-29T03:29:22.601Z,51.23
2023-01-29T03:32:09.141Z,51.21
2023-01-29T03:34:48.438Z,50.94
2023-01-29T03:37:29.399Z,50.95
2023-01-29T03:39:56.727Z,50.69
2023-01-29T03:42:50.708Z,50.76
2023-01-29T03:45:23.183Z,50.99
2023-01-29T03:48:15.663Z,51.04
2023-01-29T03:51:17.961Z,51.26
2023-01-29T03:54:26.557Z,51.77
2023-01-29T03:57:15.520Z,51.84
2023-01-29T04:00:08.046Z,51.79
2023-01-29T04:02:55.764Z,51.98
2023-01-29T04:05:31.934Z,52.08
2023-01-29T04:08:16.509Z,52.19
2023-01-29T04:10:46.366Z,52.45
2023-01-29T04:13:15.207Z,52.95
2023-01-29T04:15:54.518Z,52.85
2023-01-29T04:18:34.908Z,52.47
2023-01-29T04:21:10.879Z,52.81
2023-01-29T04:23:39.247Z,53.05
2023-01-29T04:26:26.711Z,53.08
2023-01-29T04:29:08.850Z,53.61
2023-01-29T04:31:57.325Z,53.36
2023-01-29T04:34:37.085Z,53.48
2023-01-29T04:37:13.106Z,53.11
2023-01-29T04:39:43.022Z,53.12
2023-01-29T04:42:19.101Z,53.47
2023-01-29T04:45:03.896Z,53.73
2023-01-29T04:48:06.114Z,53.76
2023-01-29T04:51:05.745Z,53.47
2023-01-29T04:54:16.135Z,53.22
2023-01-29T04:57:02.789Z,53.25
2023-01-29T04:59:36.895Z,53.28
2023-01-29T05:02:06.134Z,53.40
2023-01-29T05:04:34.589Z,53.28
2023-01-29T05:07:04.829Z,52.98
2023-01-29T05:09:33.075Z,53.27
2023-01-29T05:12:02.098Z,53.40
2023-01-29T05:14:34.260Z,53.17
2023-01-29T05:17:07.757Z,53.15
2023-01-29T05:19:34.856Z,53.14
2023-01-29T05:22:05.942Z,53.31
2023-01-29T05:24:33.066Z,53.04
2023-01-29T05:27:18.337Z,53.04
2023-01-29T05:29:47.945Z,53.36
2023-01-29T05:32:16.182Z,53.38
2023-01-29T05:34:43.328Z,53.06
2023-01-29T05:37:11.137Z,53.47
2023-01-29T05:39:38.211Z,53.27
2023-01-29T05:42:05.290Z,53.09
2023-01-29T05:44:32.486Z,53.12
2023-01-29T05:46:59.605Z,53.14
2023-01-29T05:49:26.703Z,53.34
2023-01-29T05:51:53.741Z,53.15
2023-01-29T05:54:20.896Z,52.98
2023-01-29T05:56:48.093Z,53.21
2023-01-29T05:59:16.658Z,53.09
2023-01-29T06:01:43.857Z,53.36
2023-01-29T06:04:10.986Z,53.51
2023-01-29T06:06:38.112Z,53.32
2023-01-29T06:09:05.331Z,53.21
2023-01-29T06:11:32.438Z,53.56
2023-01-29T06:14:00.429Z,53.51
2023-01-29T06:16:27.594Z,53.44
2023-01-29T06:18:54.682Z,53.27
2023-01-29T06:21:21.762Z,52.98
2023-01-29T06:23:48.875Z,53.05
2023-01-29T06:26:16.416Z,52.67
2023-01-29T06:28:45.205Z,52.85
2023-01-29T06:31:40.519Z,52.29
2023-01-29T06:33:59.809Z,51.98
2023-01-29T06:36:26.972Z,51.86
2023-01-29T06:38:54.088Z,51.47
2023-01-29T06:41:25.311Z,50.45
2023-01-29T06:43:52.777Z,49.96
2023-01-29T06:46:20.211Z,50.03
2023-01-29T06:48:47.504Z,50.22
2023-01-29T06:51:14.784Z,49.63
2023-01-29T06:53:43.429Z,49.50
2023-01-29T06:56:12.514Z,49.02
2023-01-29T06:58:39.590Z,49.15
2023-01-29T07:01:17.569Z,48.95
2023-01-29T07:03:56.531Z,48.86
2023-01-29T07:06:29.189Z,49.25
2023-01-29T07:08:56.970Z,49.33
2023-01-29T07:11:24.261Z,48.56
2023-01-29T07:13:51.506Z,49.30
2023-01-29T07:16:19.332Z,49.56
2023-01-29T07:18:46.796Z,48.44
2023-01-29T07:21:14.073Z,48.20
2023-01-29T07:23:41.209Z,48.05
2023-01-29T07:26:08.589Z,47.89
2023-01-29T07:28:39.818Z,47.04
2023-01-29T07:31:08.490Z,47.03
2023-01-29T07:33:35.747Z,48.17
2023-01-29T07:36:02.985Z,48.42
2023-01-29T07:38:30.069Z,48.51
2023-01-29T07:40:57.167Z,47.80
2023-01-29T07:43:25.150Z,47.93
2023-01-29T07:45:52.582Z,47.39
2023-01-29T07:48:19.946Z,47.64
2023-01-29T07:50:59.939Z,47.21
2023-01-29T07:53:28.556Z,46.76
2023-01-29T07:55:56.090Z,47.30
2023-01-29T07:58:23.516Z,47.52
2023-01-29T08:00:50.758Z,47.50
2023-01-29T08:03:22.614Z,47.14
2023-01-29T08:05:50.055Z,46.83
2023-01-29T08:08:17.337Z,47.66
2023-01-29T08:10:44.423Z,48.38
2023-01-29T08:13:11.514Z,48.93
2023-01-29T08:15:39.437Z,49.16
2023-01-29T08:18:09.905Z,49.30
2023-01-29T08:20:37.032Z,49.08
2023-01-29T08:23:08.702Z,48.18
2023-01-29T08:25:36.988Z,48.64
2023-01-29T08:28:04.713Z,48.71
2023-01-29T08:30:34.462Z,48.80
2023-01-29T08:33:03.809Z,48.68
2023-01-29T08:35:31.712Z,48.53
2023-01-29T08:38:02.105Z,48.61
2023-01-29T08:40:32.713Z,48.20
2023-01-29T08:43:02.971Z,47.95
2023-01-29T08:45:34.391Z,47.92
2023-01-29T08:48:01.860Z,47.31
2023-01-29T08:50:30.820Z,46.90
2023-01-29T08:53:00.331Z,46.81
2023-01-29T08:55:28.840Z,47.05
2023-01-29T08:57:59.070Z,46.72
2023-01-29T09:00:26.523Z,46.96
2023-01-29T09:02:53.595Z,47.56
2023-01-29T09:05:20.806Z,47.01
2023-01-29T09:07:47.917Z,46.30
2023-01-29T09:10:16.164Z,45.40
2023-01-29T09:12:43.292Z,45.40
2023-01-29T09:15:11.203Z,44.91
2023-01-29T09:17:38.243Z,44.84
2023-01-29T09:20:09.012Z,45.83
2023-01-29T09:22:36.471Z,45.18
2023-01-29T09:25:04.302Z,45.12
2023-01-29T09:27:31.660Z,44.53
2023-01-29T09:29:58.823Z,44.62
2023-01-29T09:32:52.081Z,44.40
2023-01-29T09:35:13.032Z,44.76
2023-01-29T09:37:40.212Z,44.57
2023-01-29T09:40:11.617Z,43.62
2023-01-29T09:42:48.595Z,43.19
2023-01-29T09:45:24.793Z,43.63
2023-01-29T09:47:53.779Z,43.70
2023-01-29T09:50:30.375Z,44.51
2023-01-29T09:53:00.613Z,44.88
2023-01-29T09:55:56.633Z,45.78
2023-01-29T09:58:39.814Z,45.02
2023-01-29T10:01:09.917Z,44.75
2023-01-29T10:03:45.697Z,45.16
2023-01-29T10:06:53.493Z,44.89
2023-01-29T10:09:38.922Z,44.62
2023-01-29T10:12:43.962Z,44.20
2023-01-29T10:15:40.156Z,43.66
2023-01-29T10:18:53.960Z,43.57
2023-01-29T10:21:52.283Z,44.41
2023-01-29T10:24:39.225Z,43.85
2023-01-29T10:27:19.977Z,43.72
2023-01-29T10:29:51.447Z,43.35
2023-01-29T10:32:25.575Z,44.09
2023-01-29T10:35:42.950Z,43.69
2023-01-29T10:38:31.727Z,45.49
2023-01-29T10:41:21.859Z,44.74
2023-01-29T10:43:58.386Z,44.55
2023-01-29T10:46:50.170Z,44.44
2023-01-29T10:49:48.926Z,44.29
2023-01-29T10:53:23.319Z,44.13
2023-01-29T10:56:42.591Z,44.19
2023-01-29T10:59:21.726Z,44.23
2023-01-29T11:01:49.025Z,45.05
2023-01-29T11:04:16.223Z,44.78
2023-01-29T11:06:44.200Z,45.96
2023-01-29T11:09:42.799Z,46.68
2023-01-29T11:12:26.939Z,47.03
2023-01-29T11:15:05.066Z,47.90
2023-01-29T11:17:32.238Z,48.22
2023-01-29T11:19:59.370Z,47.67
2023-01-29T11:22:30.964Z,47.93
2023-01-29T11:25:20.423Z,47.61
2023-01-29T11:27:51.357Z,47.29
2023-01-29T11:30:26.178Z,47.05
2023-01-29T11:33:17.905Z,46.35
2023-01-29T11:35:45.403Z,45.65
2023-01-29T11:38:26.604Z,44.24
2023-01-29T11:41:05.944Z,44.02
2023-01-29T11:43:33.820Z,44.06
2023-01-29T11:46:05.255Z,44.58
2023-01-29T11:48:51.509Z,44.29
2023-01-29T11:51:29.032Z,43.39
2023-01-29T11:54:03.628Z,42.97
2023-01-29T11:56:42.681Z,42.61
2023-01-29T11:59:37.465Z,42.58
2023-01-29T12:02:26.728Z,44.35
2023-01-29T12:05:03.170Z,44.93
2023-01-29T12:07:32.033Z,44.56
2023-01-29T12:10:00.227Z,43.64
2023-01-29T12:12:37.153Z,42.94
2023-01-29T12:15:19.849Z,42.90
2023-01-29T12:18:30.789Z,42.65
2023-01-29T12:21:05.649Z,42.25
2023-01-29T12:24:04.328Z,41.49
2023-01-29T12:26:37.492Z,41.58
2023-01-29T12:29:43.245Z,42.06
2023-01-29T12:32:44.335Z,42.21
2023-01-29T12:35:28.833Z,43.28
2023-01-29T12:38:09.667Z,43.73
2023-01-29T12:41:04.157Z,42.71
2023-01-29T12:44:30.949Z,41.94
2023-01-29T12:47:03.015Z,41.06
2023-01-29T12:49:34.563Z,41.17
2023-01-29T12:52:09.687Z,40.92
2023-01-29T12:54:57.584Z,41.06
2023-01-29T12:58:06.928Z,40.76
2023-01-29T13:00:40.926Z,41.96
2023-01-29T13:04:01.040Z,42.59
2023-01-29T13:06:41.609Z,43.01
2023-01-29T13:09:21.098Z,43.25
2023-01-29T13:12:04.125Z,45.43
2023-01-29T13:14:55.108Z,44.35
2023-01-29T13:17:42.457Z,43.42
2023-01-29T13:20:20.247Z,42.65
2023-01-29T13:22:48.842Z,42.60
2023-01-29T13:25:20.921Z,42.10
2023-01-29T13:27:50.058Z,41.67
2023-01-29T13:30:32.590Z,41.66
2023-01-29T13:33:11.441Z,42.43
2023-01-29T13:35:43.084Z,43.25
2023-01-29T13:38:41.030Z,43.42
2023-01-29T13:41:08.896Z,44.27
2023-01-29T13:43:41.820Z,44.87
2023-01-29T13:46:13.896Z,45.15
2023-01-29T13:48:44.298Z,45.20
2023-01-29T13:51:19.561Z,46.53
2023-01-29T13:54:04.322Z,46.11
2023-01-29T13:56:34.563Z,46.31
2023-01-29T13:59:05.418Z,46.25
2023-01-29T14:01:47.991Z,46.12
2023-01-29T14:04:27.021Z,45.61
2023-01-29T14:07:06.566Z,45.56
2023-01-29T14:09:39.427Z,45.98
2023-01-29T14:12:21.965Z,45.54
2023-01-29T14:14:49.153Z,45.75
2023-01-29T14:17:19.505Z,46.83
2023-01-29T14:19:52.135Z,46.29
2023-01-29T14:22:24.705Z,46.24
2023-01-29T14:24:58.364Z,45.96
2023-01-29T14:27:26.242Z,45.49
2023-01-29T14:30:07.749Z,45.11
2023-01-29T14:32:35.076Z,45.51
2023-01-29T14:35:19.195Z,46.53
2023-01-29T14:37:50.725Z,47.73
2023-01-29T14:40:23.617Z,47.68
2023-01-29T14:43:21.016Z,48.56
2023-01-29T14:45:49.673Z,48.51
2023-01-29T14:48:48.791Z,48.83
2023-01-29T14:51:18.075Z,48.87
2023-01-29T14:54:13.112Z,48.97
2023-01-29T14:57:05.245Z,48.89
2023-01-29T14:59:53.065Z,49.35
2023-01-29T15:02:33.756Z,48.89
2023-01-29T15:05:05.214Z,49.06
2023-01-29T15:07:36.651Z,48.90
2023-01-29T15:10:23.555Z,48.72
2023-01-29T15:13:31.235Z,49.41
2023-01-29T15:16:26.189Z,49.88
2023-01-29T15:18:57.672Z,50.28
2023-01-29T15:21:24.897Z,50.53
2023-01-29T15:24:06.294Z,50.61
2023-01-29T15:26:35.592Z,50.41
2023-01-29T15:29:04.810Z,50.53
2023-01-29T15:31:35.120Z,50.46
2023-01-29T15:34:06.852Z,50.59
2023-01-29T15:36:34.362Z,50.85
2023-01-29T15:39:24.728Z,51.43
2023-01-29T15:42:12.541Z,51.19
2023-01-29T15:44:46.568Z,51.74
2023-01-29T15:47:14.915Z,51.86
2023-01-29T15:49:42.981Z,52.04
2023-01-29T15:52:23.656Z,51.93
2023-01-29T15:54:51.723Z,51.19
2023-01-29T15:57:26.025Z,51.41
2023-01-29T15:59:56.923Z,51.42
2023-01-29T16:02:33.730Z,51.35
2023-01-29T16:05:01.732Z,51.68
2023-01-29T16:07:30.033Z,51.87
2023-01-29T16:09:57.780Z,51.93
2023-01-29T16:12:28.096Z,52.04
2023-01-29T16:14:59.463Z,52.16
2023-01-29T16:17:36.595Z,52.28
2023-01-29T16:20:28.380Z,52.66
2023-01-29T16:22:55.507Z,52.71
2023-01-29T16:25:24.260Z,52.78
2023-01-29T16:27:52.331Z,52.65
2023-01-29T16:30:20.254Z,52.67
2023-01-29T16:32:47.470Z,52.38
2023-01-29T16:35:17.395Z,52.58
2023-01-29T16:37:50.208Z,52.56
2023-01-29T16:40:34.086Z,52.54
2023-01-29T16:43:19.578Z,52.58
2023-01-29T16:46:11.458Z,52.78
2023-01-29T16:48:38.908Z,52.69
2023-01-29T16:51:14.615Z,52.40
2023-01-29T16:54:10.988Z,52.37
2023-01-29T16:56:39.441Z,52.24
2023-01-29T16:59:07.454Z,52.31
2023-01-29T17:01:36.693Z,52.20
2023-01-29T17:04:24.143Z,52.48
2023-01-29T17:07:00.907Z,52.50
2023-01-29T17:09:34.710Z,52.26
2023-01-29T17:12:07.224Z,52.47
2023-01-29T17:14:38.040Z,52.33
2023-01-29T17:17:14.352Z,51.97
2023-01-29T17:19:43.071Z,51.66
2023-01-29T17:22:14.853Z,51.99
2023-01-29T17:24:42.970Z,51.98
2023-01-29T17:27:22.434Z,51.75
2023-01-29T17:29:51.574Z,52.01
2023-01-29T17:32:19.730Z,51.98
2023-01-29T17:34:47.417Z,51.71
2023-01-29T17:37:17.081Z,51.25
2023-01-29T17:39:45.685Z,51.69
2023-01-29T17:42:15.275Z,51.49
2023-01-29T17:44:43.395Z,51.17
2023-01-29T17:47:15.185Z,50.95
2023-01-29T17:49:43.149Z,50.94
2023-01-29T17:52:10.471Z,51.09
2023-01-29T17:54:37.659Z,51.14
2023-01-29T17:57:05.113Z,51.23
2023-01-29T17:59:33.982Z,50.74
2023-01-29T18:02:01.378Z,51.24
2023-01-29T18:04:31.877Z,50.76
2023-01-29T18:07:01.504Z,50.99
2023-01-29T18:09:36.218Z,51.21
2023-01-29T18:12:03.949Z,50.99
2023-01-29T18:14:31.084Z,50.68
2023-01-29T18:16:58.308Z,51.04
2023-01-29T18:19:31.222Z,51.16
2023-01-29T18:21:58.436Z,51.17
2023-01-29T18:24:26.752Z,50.75
2023-01-29T18:26:53.965Z,50.78
2023-01-29T18:29:21.183Z,50.39
2023-01-29T18:31:49.553Z,50.40
2023-01-29T18:34:19.066Z,50.60
2023-01-29T18:36:47.769Z,50.22
2023-01-29T18:39:18.048Z,50.14
2023-01-29T18:41:45.088Z,50.21
2023-01-29T18:44:12.448Z,49.80
2023-01-29T18:46:40.380Z,49.61
2023-01-29T18:49:07.572Z,49.92
2023-01-29T18:51:34.723Z,50.18
2023-01-29T18:54:02.439Z,50.19
2023-01-29T18:56:29.489Z,50.28
2023-01-29T18:58:56.914Z,50.12
2023-01-29T19:01:24.372Z,50.43
2023-01-29T19:03:52.096Z,50.37
2023-01-29T19:06:19.675Z,50.39
2023-01-29T19:08:47.443Z,50.47
2023-01-29T19:11:14.766Z,50.58
2023-01-29T19:13:42.960Z,50.43
2023-01-29T19:16:12.649Z,50.81
2023-01-29T19:18:40.382Z,50.59
2023-01-29T19:21:10.715Z,50.79
2023-01-29T19:23:38.293Z,50.83
2023-01-29T19:26:05.911Z,50.45
2023-01-29T19:28:33.753Z,50.65
2023-01-29T19:31:01.271Z,50.37
2023-01-29T19:33:29.673Z,50.57
2023-01-29T19:36:01.317Z,50.39
2023-01-29T19:38:29.065Z,50.41
2023-01-29T19:40:56.515Z,50.59
2023-01-29T19:43:24.219Z,50.42
2023-01-29T19:46:01.804Z,50.26
2023-01-29T19:48:29.512Z,50.28
2023-01-29T19:51:02.323Z,50.04
2023-01-29T19:53:30.653Z,50.20
2023-01-29T19:56:07.205Z,50.05
2023-01-29T19:58:34.876Z,50.21
2023-01-29T20:01:13.575Z,49.89
2023-01-29T20:03:46.711Z,49.83
2023-01-29T20:06:17.214Z,49.83
2023-01-29T20:08:47.760Z,49.82
2023-01-29T20:11:17.446Z,50.21
2023-01-29T20:13:48.752Z,49.93
2023-01-29T20:16:17.367Z,50.39
2023-01-29T20:18:44.845Z,50.23
2023-01-29T20:21:15.480Z,50.22
2023-01-29T20:23:45.659Z,50.31
2023-01-29T20:26:16.687Z,50.32
2023-01-29T20:28:47.779Z,49.99
2023-01-29T20:31:15.905Z,50.06
2023-01-29T20:33:44.380Z,49.87
2023-01-29T20:36:14.731Z,50.23
2023-01-29T20:38:42.230Z,49.76
2023-01-29T20:41:17.385Z,49.61
2023-01-29T20:43:47.041Z,49.67
2023-01-29T20:46:14.441Z,49.07
2023-01-29T20:48:42.146Z,49.33
2023-01-29T20:51:16.800Z,49.54
2023-01-29T20:53:46.432Z,49.32
2023-01-29T20:56:16.785Z,49.47
2023-01-29T20:58:46.741Z,49.34
2023-01-29T21:01:17.916Z,49.44
2023-01-29T21:03:46.572Z,49.38
2023-01-29T21:06:14.572Z,49.45
2023-01-29T21:08:42.163Z,49.55
2023-01-29T21:11:10.473Z,49.41
2023-01-29T21:13:38.345Z,49.54
2023-01-29T21:16:05.933Z,49.29
2023-01-29T21:18:33.246Z,49.09
2023-01-29T21:21:00.377Z,49.20
2023-01-29T21:23:27.450Z,49.30
2023-01-29T21:26:00.124Z,49.54
2023-01-29T21:28:27.371Z,49.28
2023-01-29T21:31:08.825Z,48.93
2023-01-29T21:33:37.102Z,49.18
2023-01-29T21:36:04.876Z,48.68
2023-01-29T21:38:32.176Z,48.94
2023-01-29T21:41:04.716Z,48.67
2023-01-29T21:43:31.952Z,48.65
2023-01-29T21:46:04.989Z,48.78
2023-01-29T21:48:32.530Z,48.86
2023-01-29T21:50:59.715Z,49.54
2023-01-29T21:53:26.850Z,49.02
2023-01-29T21:56:01.962Z,49.18
2023-01-29T21:58:29.989Z,49.88
2023-01-29T22:00:57.789Z,50.03
2023-01-29T22:03:47.251Z,50.05
2023-01-29T22:06:15.540Z,49.81
2023-01-29T22:08:42.936Z,50.06
2023-01-29T22:11:10.754Z,50.14
2023-01-29T22:13:38.108Z,50.16
2023-01-29T22:16:06.113Z,50.47
2023-01-29T22:18:33.349Z,50.20
2023-01-29T22:21:02.843Z,50.32
2023-01-29T22:23:31.911Z,50.42
2023-01-29T22:26:06.789Z,50.25
2023-01-29T22:28:34.161Z,50.06
2023-01-29T22:31:05.518Z,49.79
2023-01-29T22:33:33.577Z,49.72
2023-01-29T22:36:01.125Z,49.97
2023-01-29T22:38:28.987Z,49.91
2023-01-29T22:40:57.732Z,49.88
2023-01-29T22:43:29.219Z,50.03
2023-01-29T22:45:56.568Z,49.65
2023-01-29T22:48:25.571Z,49.81
2023-01-29T22:51:09.927Z,49.90
2023-01-29T22:53:39.463Z,50.11
2023-01-29T22:56:08.051Z,49.98
2023-01-29T22:58:35.233Z,50.21
2023-01-29T23:01:02.512Z,50.26
2023-01-29T23:03:29.923Z,49.97
2023-01-29T23:05:56.997Z,50.01
2023-01-29T23:08:24.248Z,50.09
2023-01-29T23:10:51.609Z,49.80
2023-01-29T23:13:18.958Z,49.56
2023-01-29T23:15:46.085Z,49.63
2023-01-29T23:18:13.256Z,49.14
2023-01-29T23:20:40.339Z,49.35
2023-01-29T23:23:07.441Z,49.64
2023-01-29T23:25:52.964Z,49.18
2023-01-29T23:28:20.074Z,49.05
2023-01-29T23:30:47.927Z,49.02
2023-01-29T23:33:15.354Z,49.11
2023-01-29T23:35:42.437Z,49.50
2023-01-29T23:38:09.511Z,49.27
2023-01-29T23:40:36.674Z,49.63
2023-01-29T23:43:03.817Z,49.23
2023-01-29T23:45:30.928Z,49.24
2023-01-29T23:47:57.963Z,49.45
2023-01-29T23:50:25.120Z,49.25
2023-01-29T23:52:52.149Z,49.57
2023-01-29T23:55:19.204Z,48.98
2023-01-29T23:57:46.239Z,48.90
